Time;durP1;ratioP1;P1;durP2;ratioP2;P2;SDS_P1;SDS_P2;PMS_P1;PMS_P2;Temp;Humidity;BMP_temperature;BMP_pressure;BME280_temperature;BME280_humidity;BME280_pressure;Samples;Min_cycle;Max_cycle;Signal;HPM_P1;HPM_P2
2022/07/16 00:03:18;;;;;;;2.67;1.33;;;;;;;;;;6266934;28;20227;-70
2022/07/16 00:06:39;;;;;;;2.20;1.27;;;;;;;;;;6269712;28;20246;-70
2022/07/16 00:10:00;;;;;;;2.40;1.57;;;;;;;;;;6269176;28;20235;-70
2022/07/16 00:13:21;;;;;;;2.63;1.67;;;;;;;;;;6265135;28;20223;-70
2022/07/16 00:16:41;;;;;;;2.23;1.47;;;;;;;;;;6244587;28;20227;-70
2022/07/16 00:20:02;;;;;;;5.30;2.30;;;;;;;;;;6274355;28;21191;-70
2022/07/16 00:23:24;;;;;;;4.15;2.00;;;;;;;;;;6271567;28;20250;-71
2022/07/16 00:26:44;;;;;;;2.30;1.80;;;;;;;;;;6274579;28;20231;-70
2022/07/16 00:30:06;;;;;;;3.25;1.70;;;;;;;;;;6274277;28;20255;-69
2022/07/16 00:33:27;;;;;;;3.10;2.77;;;;;;;;;;6274102;28;20226;-69
2022/07/16 00:36:47;;;;;;;2.75;2.17;;;;;;;;;;6269968;28;20325;-69
2022/07/16 00:40:10;;;;;;;4.03;2.53;;;;;;;;;;6267672;28;20608;-69
2022/07/16 00:43:30;;;;;;;2.57;1.90;;;;;;;;;;6265467;28;20231;-69
2022/07/16 00:46:51;;;;;;;2.75;2.55;;;;;;;;;;6268010;28;20227;-70
2022/07/16 00:50:12;;;;;;;3.43;2.57;;;;;;;;;;6267812;28;20588;-69
2022/07/16 00:53:33;;;;;;;4.00;2.40;;;;;;;;;;6268464;28;20227;-68
2022/07/16 00:56:55;;;;;;;5.83;3.20;;;;;;;;;;6266815;28;20231;-69
2022/07/16 01:00:16;;;;;;;6.33;3.30;;;;;;;;;;6268663;28;20591;-69
2022/07/16 01:03:37;;;;;;;4.13;2.57;;;;;;;;;;6266627;28;20608;-69
2022/07/16 01:06:57;;;;;;;7.57;3.40;;;;;;;;;;6265407;28;20222;-70
2022/07/16 01:10:18;;;;;;;5.13;2.67;;;;;;;;;;6268185;28;20576;-69
2022/07/16 01:13:41;;;;;;;2.63;2.43;;;;;;;;;;6266684;28;20235;-70
2022/07/16 01:17:02;;;;;;;3.90;2.70;;;;;;;;;;6266696;28;20231;-68
2022/07/16 01:20:23;;;;;;;3.00;2.70;;;;;;;;;;6263876;28;20239;-69
2022/07/16 01:23:47;;;;;;;4.13;2.70;;;;;;;;;;6267653;28;20526;-68
2022/07/16 01:27:08;;;;;;;5.07;3.20;;;;;;;;;;6267105;28;20243;-69
2022/07/16 01:30:29;;;;;;;3.80;2.63;;;;;;;;;;6268431;28;20512;-68
2022/07/16 01:34:24;;;;;;;3.57;3.27;;;;;;;;;;6268533;28;20227;-71
2022/07/16 01:37:30;;;;;;;4.20;3.23;;;;;;;;;;6265893;28;20235;-69
2022/07/16 01:40:52;;;;;;;3.70;3.40;;;;;;;;;;6268319;28;20265;-70
2022/07/16 01:44:13;;;;;;;6.53;4.20;;;;;;;;;;6260540;28;20231;-70
2022/07/16 01:47:34;;;;;;;3.30;3.00;;;;;;;;;;6263046;28;20219;-70
2022/07/16 01:50:54;;;;;;;3.60;3.30;;;;;;;;;;6263887;28;20242;-70
2022/07/16 01:54:15;;;;;;;3.90;3.50;;;;;;;;;;6269945;28;20227;-70
2022/07/16 01:57:37;;;;;;;5.00;3.50;;;;;;;;;;6271198;28;20216;-70
2022/07/16 02:00:58;;;;;;;3.70;3.43;;;;;;;;;;6266753;28;20342;-69
2022/07/16 02:04:18;;;;;;;6.80;4.00;;;;;;;;;;6243017;28;20251;-69
2022/07/16 02:07:39;;;;;;;4.10;3.40;;;;;;;;;;6265919;28;20318;-70
2022/07/16 02:11:00;;;;;;;3.93;3.57;;;;;;;;;;6268182;28;20231;-70
2022/07/16 02:14:22;;;;;;;6.13;4.67;;;;;;;;;;6255929;28;20302;-70
2022/07/16 02:17:42;;;;;;;4.20;3.30;;;;;;;;;;6262528;28;20321;-70
2022/07/16 02:21:03;;;;;;;5.30;4.07;;;;;;;;;;6269642;28;20310;-70
2022/07/16 02:24:24;;;;;;;5.23;3.10;;;;;;;;;;6260589;28;20635;-70
2022/07/16 02:31:21;;;;;;;4.93;3.27;;;;;;;;;;6266983;28;20234;-69
2022/07/16 02:34:41;;;;;;;3.50;3.20;;;;;;;;;;6270072;28;20227;-70
2022/07/16 02:38:02;;;;;;;3.37;3.07;;;;;;;;;;6267783;28;20227;-70
2022/07/16 02:41:22;;;;;;;3.50;2.87;;;;;;;;;;6267134;28;20297;-70
2022/07/16 02:44:43;;;;;;;6.67;4.17;;;;;;;;;;6268920;28;20243;-70
2022/07/16 02:48:05;;;;;;;5.60;3.13;;;;;;;;;;6266625;28;20358;-70
2022/07/16 02:51:26;;;;;;;4.03;2.70;;;;;;;;;;6268300;28;20227;-70
2022/07/16 02:54:46;;;;;;;3.50;2.70;;;;;;;;;;6270467;28;20258;-71
2022/07/16 02:58:07;;;;;;;4.63;3.03;;;;;;;;;;6261666;28;20559;-69
2022/07/16 03:01:27;;;;;;;3.53;3.07;;;;;;;;;;6275621;28;20223;-69
2022/07/16 03:04:49;;;;;;;2.67;2.47;;;;;;;;;;6268493;28;20452;-71
2022/07/16 03:08:10;;;;;;;2.60;2.00;;;;;;;;;;6268530;28;20231;-70
2022/07/16 03:11:31;;;;;;;2.57;2.30;;;;;;;;;;6266936;28;20231;-70
2022/07/16 03:14:51;;;;;;;3.23;1.97;;;;;;;;;;6259802;28;20590;-69
2022/07/16 03:18:12;;;;;;;3.57;2.60;;;;;;;;;;6268833;28;20235;-70
2022/07/16 03:21:34;;;;;;;4.10;2.37;;;;;;;;;;6266127;28;22171;-70
2022/07/16 03:24:54;;;;;;;2.20;1.63;;;;;;;;;;6258673;28;20232;-71
2022/07/16 03:28:15;;;;;;;4.10;1.97;;;;;;;;;;6254872;28;20510;-70
2022/07/16 03:31:35;;;;;;;3.50;1.87;;;;;;;;;;6264978;28;20234;-70
2022/07/16 03:34:56;;;;;;;3.93;2.30;;;;;;;;;;6272114;28;20234;-71
2022/07/16 03:41:56;;;;;;;3.83;1.87;;;;;;;;;;6268719;28;20227;-70
2022/07/16 03:45:17;;;;;;;4.00;1.83;;;;;;;;;;6264181;28;20231;-70
2022/07/16 03:48:37;;;;;;;3.17;2.67;;;;;;;;;;6265258;28;20234;-71
2022/07/16 03:51:58;;;;;;;7.70;3.70;;;;;;;;;;6281535;28;20362;-70
2022/07/16 03:55:20;;;;;;;7.83;2.00;;;;;;;;;;6265810;28;20689;-70
2022/07/16 03:58:40;;;;;;;3.97;2.20;;;;;;;;;;6266708;28;20227;-71
2022/07/16 04:02:01;;;;;;;2.33;1.70;;;;;;;;;;6265560;28;20325;-70
2022/07/16 04:05:21;;;;;;;3.83;1.90;;;;;;;;;;6267093;28;20254;-71
2022/07/16 04:08:42;;;;;;;3.13;2.67;;;;;;;;;;6265655;28;20223;-70
2022/07/16 04:12:04;;;;;;;3.07;2.10;;;;;;;;;;6270233;28;20231;-70
2022/07/16 04:15:25;;;;;;;1.93;1.60;;;;;;;;;;6265388;28;20235;-70
2022/07/16 04:18:46;;;;;;;3.30;2.23;;;;;;;;;;6264699;28;20259;-71
2022/07/16 04:22:07;;;;;;;2.87;1.67;;;;;;;;;;6266359;28;20219;-70
2022/07/16 04:25:27;;;;;;;2.27;1.87;;;;;;;;;;6261404;28;20526;-70
2022/07/16 04:28:49;;;;;;;1.53;1.17;;;;;;;;;;6269277;28;20517;-71
2022/07/16 04:32:10;;;;;;;3.10;2.37;;;;;;;;;;6265363;28;20243;-70
2022/07/16 04:35:30;;;;;;;3.03;1.70;;;;;;;;;;6263102;28;20605;-71
2022/07/16 04:38:51;;;;;;;3.67;2.10;;;;;;;;;;6265140;28;20558;-71
2022/07/16 04:42:12;;;;;;;4.03;1.80;;;;;;;;;;6264004;28;20392;-71
2022/07/16 04:45:34;;;;;;;3.10;1.93;;;;;;;;;;6263322;28;20693;-70
2022/07/16 04:48:55;;;;;;;4.37;1.83;;;;;;;;;;6266839;28;20231;-70
2022/07/16 04:52:15;;;;;;;5.00;2.07;;;;;;;;;;6265982;28;20235;-70
2022/07/16 04:55:36;;;;;;;5.07;2.13;;;;;;;;;;6262895;28;20577;-70
2022/07/16 04:58:57;;;;;;;5.50;2.93;;;;;;;;;;6257101;28;20239;-70
2022/07/16 05:05:57;;;;;;;3.63;2.23;;;;;;;;;;6266380;28;20231;-71
2022/07/16 05:09:17;;;;;;;4.10;2.57;;;;;;;;;;6266490;28;20681;-71
2022/07/16 05:12:38;;;;;;;3.80;2.60;;;;;;;;;;6274482;28;20219;-71
2022/07/16 05:16:01;;;;;;;4.20;2.23;;;;;;;;;;6266058;28;20227;-71
2022/07/16 05:19:23;;;;;;;4.43;2.23;;;;;;;;;;6271937;28;20227;-71
2022/07/16 05:22:44;;;;;;;7.93;2.57;;;;;;;;;;6274154;28;20781;-70
2022/07/16 05:26:04;;;;;;;3.07;1.70;;;;;;;;;;6272597;28;20361;-71
2022/07/16 05:29:24;;;;;;;5.10;2.17;;;;;;;;;;6268657;28;20227;-71
2022/07/16 05:32:45;;;;;;;4.30;2.20;;;;;;;;;;6269694;28;20715;-71
2022/07/16 05:36:08;;;;;;;2.87;2.10;;;;;;;;;;6266592;28;20235;-69
2022/07/16 05:39:29;;;;;;;3.00;2.00;;;;;;;;;;6271969;28;20227;-70
2022/07/16 05:42:50;;;;;;;4.37;1.97;;;;;;;;;;6266439;28;20338;-71
2022/07/16 05:46:11;;;;;;;2.72;1.95;;;;;;;;;;6266328;28;20231;-71
2022/07/16 05:49:31;;;;;;;2.00;1.57;;;;;;;;;;6275879;28;20223;-71
2022/07/16 05:52:53;;;;;;;3.08;2.05;;;;;;;;;;6278605;28;20230;-70
2022/07/16 05:56:14;;;;;;;4.75;1.98;;;;;;;;;;6272552;28;20451;-70
2022/07/16 05:59:34;;;;;;;4.80;2.07;;;;;;;;;;6273824;28;20222;-70
2022/07/16 06:02:55;;;;;;;4.10;1.73;;;;;;;;;;6267896;28;20223;-70
2022/07/16 06:06:16;;;;;;;2.50;1.40;;;;;;;;;;6266920;28;20238;-71
2022/07/16 06:09:38;;;;;;;3.40;2.43;;;;;;;;;;6275218;28;20231;-70
2022/07/16 06:12:58;;;;;;;1.60;1.50;;;;;;;;;;6268898;28;20230;-70
2022/07/16 06:16:20;;;;;;;2.60;1.73;;;;;;;;;;6265669;28;20299;-71
2022/07/16 06:19:41;;;;;;;3.27;1.70;;;;;;;;;;6272548;28;20231;-71
2022/07/16 06:23:02;;;;;;;5.90;1.63;;;;;;;;;;6260304;28;20426;-70
2022/07/16 06:26:24;;;;;;;3.53;1.87;;;;;;;;;;6268698;28;20235;-71
2022/07/16 06:29:44;;;;;;;4.63;1.80;;;;;;;;;;6267599;28;20352;-70
2022/07/16 06:33:05;;;;;;;4.27;1.97;;;;;;;;;;6260245;28;20272;-71
2022/07/16 06:36:26;;;;;;;4.33;1.63;;;;;;;;;;6269489;28;20228;-71
2022/07/16 06:39:47;;;;;;;4.03;1.52;;;;;;;;;;6259809;28;20548;-71
2022/07/16 06:43:08;;;;;;;5.00;1.70;;;;;;;;;;6250661;28;20725;-68
2022/07/16 06:46:29;;;;;;;2.95;1.35;;;;;;;;;;6256806;28;20251;-68
2022/07/16 06:49:49;;;;;;;2.50;1.27;;;;;;;;;;6262767;28;20250;-69
2022/07/16 06:53:10;;;;;;;4.65;2.05;;;;;;;;;;6271169;28;20522;-69
2022/07/16 06:56:31;;;;;;;4.03;1.27;;;;;;;;;;6272063;28;20226;-68
2022/07/16 06:59:52;;;;;;;3.20;1.20;;;;;;;;;;6263744;28;20263;-68
2022/07/16 07:03:13;;;;;;;4.05;1.33;;;;;;;;;;6270187;28;20227;-67
2022/07/16 07:06:34;;;;;;;5.17;1.43;;;;;;;;;;6264549;28;20608;-68
2022/07/16 07:09:54;;;;;;;1.93;1.10;;;;;;;;;;6267756;28;20230;-69
2022/07/16 07:13:15;;;;;;;6.57;2.47;;;;;;;;;;6266516;28;20589;-69
2022/07/16 07:16:37;;;;;;;4.27;1.40;;;;;;;;;;6263532;28;20296;-68
2022/07/16 07:19:58;;;;;;;7.73;2.80;;;;;;;;;;6267102;28;20318;-69
2022/07/16 07:23:18;;;;;;;3.63;2.13;;;;;;;;;;6261573;28;20227;-69
2022/07/16 07:26:39;;;;;;;5.10;2.00;;;;;;;;;;6273557;28;20318;-69
2022/07/16 07:29:59;;;;;;;3.27;1.37;;;;;;;;;;6275805;28;20226;-68
2022/07/16 07:33:21;;;;;;;7.15;2.00;;;;;;;;;;6260625;28;20260;-69
2022/07/16 07:36:42;;;;;;;4.40;2.15;;;;;;;;;;6263566;28;20699;-69
2022/07/16 07:40:03;;;;;;;5.80;1.43;;;;;;;;;;6259552;28;20231;-69
2022/07/16 07:43:24;;;;;;;4.55;2.08;;;;;;;;;;6277312;28;20227;-69
2022/07/16 07:46:45;;;;;;;4.88;1.45;;;;;;;;;;6269944;28;20707;-70
2022/07/16 07:50:09;;;;;;;3.75;1.38;;;;;;;;;;6273260;28;20598;-69
2022/07/16 07:53:29;;;;;;;3.88;1.30;;;;;;;;;;6272761;28;20222;-70
2022/07/16 07:56:50;;;;;;;2.33;1.00;;;;;;;;;;6274425;28;20227;-69
2022/07/16 08:00:11;;;;;;;5.63;1.42;;;;;;;;;;6272512;28;20222;-69
2022/07/16 08:03:34;;;;;;;4.57;1.75;;;;;;;;;;6267968;28;20231;-69
2022/07/16 08:06:56;;;;;;;4.13;1.60;;;;;;;;;;6275079;28;20231;-69
2022/07/16 08:10:17;;;;;;;8.40;1.73;;;;;;;;;;6278413;28;20227;-70
2022/07/16 08:13:37;;;;;;;5.03;1.60;;;;;;;;;;6276352;28;20235;-70
2022/07/16 08:16:59;;;;;;;5.35;1.10;;;;;;;;;;6272089;28;20231;-68
2022/07/16 08:20:19;;;;;;;4.28;1.35;;;;;;;;;;6275238;28;20499;-70
2022/07/16 08:27:19;;;;;;;5.13;1.63;;;;;;;;;;6273942;28;20778;-70
2022/07/16 08:30:40;;;;;;;5.72;1.45;;;;;;;;;;6277484;28;20235;-71
2022/07/16 08:34:00;;;;;;;5.47;1.60;;;;;;;;;;6275475;28;20691;-69
2022/07/16 08:37:30;;;;;;;3.03;1.33;;;;;;;;;;6271314;28;20219;-69
2022/07/16 08:40:55;;;;;;;3.47;1.60;;;;;;;;;;6274050;28;20588;-69
2022/07/16 08:44:16;;;;;;;2.92;1.40;;;;;;;;;;6262742;28;20236;-68
2022/07/16 08:47:37;;;;;;;6.22;1.95;;;;;;;;;;6254803;28;20248;-69
2022/07/16 08:50:59;;;;;;;6.60;2.00;;;;;;;;;;6268632;28;21058;-70
2022/07/16 08:54:20;;;;;;;5.82;1.52;;;;;;;;;;6271534;28;20265;-71
2022/07/16 08:57:42;;;;;;;5.15;1.27;;;;;;;;;;6258454;28;20219;-71
2022/07/16 09:01:02;;;;;;;2.45;1.20;;;;;;;;;;6259569;28;20514;-73
2022/07/16 09:04:23;;;;;;;2.97;1.55;;;;;;;;;;6262106;28;20262;-71
2022/07/16 09:07:45;;;;;;;5.57;1.90;;;;;;;;;;6262504;28;20226;-72
2022/07/16 09:11:18;;;;;;;3.83;1.05;;;;;;;;;;6274445;28;20227;-71
2022/07/16 09:14:40;;;;;;;2.63;1.27;;;;;;;;;;6265632;28;20251;-72
2022/07/16 09:18:22;;;;;;;2.78;1.05;;;;;;;;;;6258170;28;20327;-72
2022/07/16 09:21:57;;;;;;;3.65;1.13;;;;;;;;;;6267986;28;20215;-71
2022/07/16 09:25:18;;;;;;;3.42;0.88;;;;;;;;;;6269695;28;20227;-71
2022/07/16 09:28:40;;;;;;;2.78;1.23;;;;;;;;;;6274508;28;20227;-70
2022/07/16 09:32:02;;;;;;;3.03;1.25;;;;;;;;;;6265959;28;20318;-71
2022/07/16 09:35:23;;;;;;;8.05;2.13;;;;;;;;;;6267533;28;20322;-71
2022/07/16 09:38:51;;;;;;;4.13;1.38;;;;;;;;;;6267166;28;20318;-70
2022/07/16 09:42:11;;;;;;;2.42;1.33;;;;;;;;;;6268105;28;20230;-71
2022/07/16 09:45:32;;;;;;;3.60;1.50;;;;;;;;;;6264323;28;20235;-71
2022/07/16 09:48:54;;;;;;;6.45;1.73;;;;;;;;;;6263792;28;20234;-71
2022/07/16 09:52:28;;;;;;;4.18;1.67;;;;;;;;;;6266190;28;20306;-71
2022/07/16 09:55:56;;;;;;;4.80;2.10;;;;;;;;;;6264322;28;21699;-71
2022/07/16 09:59:17;;;;;;;6.53;1.60;;;;;;;;;;6263107;28;20618;-72
2022/07/16 10:02:37;;;;;;;9.40;2.83;;;;;;;;;;6270998;28;20231;-71
2022/07/16 10:05:59;;;;;;;6.32;1.70;;;;;;;;;;6276266;28;20223;-71
2022/07/16 10:09:20;;;;;;;3.70;1.67;;;;;;;;;;6271737;28;20227;-71
2022/07/16 10:12:41;;;;;;;4.25;1.40;;;;;;;;;;6268670;28;20227;-70
2022/07/16 10:16:02;;;;;;;4.32;1.63;;;;;;;;;;6266384;28;20266;-71
2022/07/16 10:19:23;;;;;;;3.80;1.17;;;;;;;;;;6271133;28;20223;-71
2022/07/16 10:22:46;;;;;;;3.70;1.48;;;;;;;;;;6271637;28;20235;-70
2022/07/16 10:26:07;;;;;;;2.70;1.38;;;;;;;;;;6277935;28;20227;-72
2022/07/16 10:29:41;;;;;;;5.32;1.92;;;;;;;;;;6278152;28;20223;-71
2022/07/16 10:33:12;;;;;;;4.15;1.50;;;;;;;;;;6272515;28;20331;-71
2022/07/16 10:36:44;;;;;;;6.47;2.28;;;;;;;;;;6277736;28;21038;-71
2022/07/16 10:40:07;;;;;;;5.93;1.70;;;;;;;;;;6278259;28;20223;-70
2022/07/16 10:43:29;;;;;;;4.25;1.25;;;;;;;;;;6268940;28;21753;-71
2022/07/16 10:46:53;;;;;;;3.75;1.17;;;;;;;;;;6265795;28;20330;-72
2022/07/16 10:50:18;;;;;;;4.38;1.90;;;;;;;;;;6272088;28;20254;-71
2022/07/16 10:54:05;;;;;;;4.88;1.50;;;;;;;;;;6266579;28;20628;-71
2022/07/16 10:57:34;;;;;;;3.88;1.55;;;;;;;;;;6219658;28;20227;-68
2022/07/16 11:00:54;;;;;;;4.28;1.50;;;;;;;;;;6255008;28;20409;-68
2022/07/16 11:04:15;;;;;;;6.18;1.95;;;;;;;;;;6261743;28;20239;-68
2022/07/16 11:07:36;;;;;;;3.22;1.30;;;;;;;;;;6265835;28;20223;-67
2022/07/16 11:10:57;;;;;;;4.55;1.90;;;;;;;;;;6274456;28;20278;-69
2022/07/16 11:14:18;;;;;;;4.53;1.90;;;;;;;;;;6270637;28;20369;-67
2022/07/16 11:17:39;;;;;;;3.15;1.42;;;;;;;;;;6266988;28;20615;-68
2022/07/16 11:21:05;;;;;;;7.22;1.85;;;;;;;;;;6260572;28;20231;-69
2022/07/16 11:24:26;;;;;;;3.55;2.00;;;;;;;;;;6271023;28;20558;-68
2022/07/16 11:27:47;;;;;;;4.78;1.35;;;;;;;;;;6267610;28;20860;-68
2022/07/16 11:31:09;;;;;;;4.40;1.40;;;;;;;;;;6266347;28;20530;-68
2022/07/16 11:34:32;;;;;;;5.68;1.35;;;;;;;;;;6271765;28;20330;-69
2022/07/16 11:37:53;;;;;;;4.57;2.15;;;;;;;;;;6271011;28;20227;-68
2022/07/16 11:41:14;;;;;;;5.47;1.23;;;;;;;;;;6269807;28;20223;-68
2022/07/16 11:44:37;;;;;;;3.10;1.45;;;;;;;;;;6271597;28;20628;-69
2022/07/16 11:48:12;;;;;;;2.83;1.67;;;;;;;;;;6266608;28;20231;-69
2022/07/16 11:51:33;;;;;;;3.53;1.70;;;;;;;;;;6262622;28;20259;-69
2022/07/16 11:54:55;;;;;;;5.13;1.35;;;;;;;;;;6265747;28;21221;-69
2022/07/16 11:58:16;;;;;;;5.15;1.83;;;;;;;;;;6260118;28;20239;-71
2022/07/16 12:01:38;;;;;;;3.72;1.30;;;;;;;;;;6255610;28;20251;-70
2022/07/16 12:05:00;;;;;;;3.40;1.77;;;;;;;;;;6267802;28;20238;-70
2022/07/16 12:08:20;;;;;;;4.35;1.20;;;;;;;;;;6270071;28;20231;-70
2022/07/16 12:11:41;;;;;;;6.57;2.30;;;;;;;;;;6268811;28;20243;-70
2022/07/16 12:15:02;;;;;;;5.88;1.75;;;;;;;;;;6276882;28;20258;-69
2022/07/16 12:18:24;;;;;;;4.50;1.45;;;;;;;;;;6268918;28;20230;-69
2022/07/16 12:21:48;;;;;;;1.98;0.90;;;;;;;;;;6270181;28;20999;-71
2022/07/16 12:25:15;;;;;;;4.13;1.50;;;;;;;;;;6265683;28;20783;-69
2022/07/16 12:28:36;;;;;;;3.05;1.42;;;;;;;;;;6267859;28;20220;-69
2022/07/16 12:32:03;;;;;;;2.65;1.35;;;;;;;;;;6266904;28;20503;-70
2022/07/16 12:35:37;;;;;;;3.67;1.58;;;;;;;;;;6267382;28;20330;-69
2022/07/16 12:39:02;;;;;;;4.95;1.42;;;;;;;;;;6266253;28;20318;-70
2022/07/16 12:42:22;;;;;;;8.10;1.60;;;;;;;;;;6269961;28;20607;-69
2022/07/16 12:45:44;;;;;;;8.50;1.98;;;;;;;;;;6263887;28;20223;-70
2022/07/16 12:49:05;;;;;;;5.25;1.70;;;;;;;;;;6253944;28;20228;-69
2022/07/16 12:52:25;;;;;;;3.22;1.73;;;;;;;;;;6242163;28;20220;-69
2022/07/16 12:59:26;;;;;;;5.63;2.40;;;;;;;;;;6253572;28;20329;-70
2022/07/16 13:02:47;;;;;;;5.45;1.60;;;;;;;;;;6261965;28;20445;-70
2022/07/16 13:06:08;;;;;;;5.10;1.25;;;;;;;;;;6267655;28;20693;-70
2022/07/16 13:09:29;;;;;;;2.63;1.65;;;;;;;;;;6263787;28;20530;-70
2022/07/16 13:12:51;;;;;;;3.17;1.48;;;;;;;;;;6265124;28;20235;-69
2022/07/16 13:16:11;;;;;;;1.73;1.27;;;;;;;;;;6267947;28;20223;-69
2022/07/16 13:19:32;;;;;;;3.38;1.27;;;;;;;;;;6268336;28;20223;-70
2022/07/16 13:22:53;;;;;;;3.90;1.58;;;;;;;;;;6261744;28;20536;-72
2022/07/16 13:26:13;;;;;;;4.00;1.50;;;;;;;;;;6266292;28;20227;-71
2022/07/16 13:29:36;;;;;;;2.95;1.00;;;;;;;;;;6261219;28;20757;-71
2022/07/16 13:32:56;;;;;;;3.67;1.13;;;;;;;;;;6260969;28;20235;-72
2022/07/16 13:36:17;;;;;;;5.90;1.83;;;;;;;;;;6258824;28;20231;-71
2022/07/16 13:39:38;;;;;;;4.03;1.58;;;;;;;;;;6266496;28;20314;-73
2022/07/16 13:42:59;;;;;;;7.55;1.95;;;;;;;;;;6270989;28;20226;-72
2022/07/16 13:46:21;;;;;;;3.90;1.33;;;;;;;;;;6267653;28;20671;-70
2022/07/16 13:49:42;;;;;;;6.45;2.15;;;;;;;;;;6260228;28;21028;-70
2022/07/16 13:53:02;;;;;;;3.63;1.27;;;;;;;;;;6272136;28;20234;-69
2022/07/16 13:56:23;;;;;;;5.72;1.77;;;;;;;;;;6267010;28;20219;-70
2022/07/16 13:59:44;;;;;;;6.35;2.10;;;;;;;;;;6272231;28;20239;-65
2022/07/16 14:03:06;;;;;;;3.03;1.42;;;;;;;;;;6249386;28;20594;-70
2022/07/16 14:06:26;;;;;;;2.17;1.20;;;;;;;;;;6251164;28;20605;-70
2022/07/16 14:09:47;;;;;;;3.20;1.08;;;;;;;;;;6248828;28;20313;-69
2022/07/16 14:13:07;;;;;;;2.67;1.33;;;;;;;;;;6275816;28;20510;-70
2022/07/16 14:16:28;;;;;;;4.07;1.55;;;;;;;;;;6269675;28;20313;-70
2022/07/16 14:19:49;;;;;;;3.10;1.65;;;;;;;;;;6273106;28;20231;-69
2022/07/16 14:23:11;;;;;;;3.92;1.25;;;;;;;;;;6266687;28;20305;-70
2022/07/16 14:26:31;;;;;;;7.53;1.88;;;;;;;;;;6274147;28;20345;-68
2022/07/16 14:29:53;;;;;;;3.63;1.42;;;;;;;;;;6268593;28;20228;-67
2022/07/16 14:33:13;;;;;;;6.35;1.75;;;;;;;;;;6264172;28;20332;-69
2022/07/16 14:36:35;;;;;;;4.00;1.67;;;;;;;;;;6270231;28;20613;-68
2022/07/16 14:39:56;;;;;;;3.40;1.55;;;;;;;;;;6275321;28;20593;-69
2022/07/16 14:43:17;;;;;;;4.53;1.52;;;;;;;;;;6267137;28;20676;-69
2022/07/16 14:46:37;;;;;;;7.82;1.88;;;;;;;;;;6273090;28;20264;-68
2022/07/16 14:49:58;;;;;;;2.40;1.30;;;;;;;;;;6262231;28;20231;-69
2022/07/16 14:53:20;;;;;;;4.40;1.58;;;;;;;;;;6272816;28;20235;-69
2022/07/16 14:56:40;;;;;;;5.72;2.38;;;;;;;;;;6276091;28;20601;-68
2022/07/16 15:00:01;;;;;;;4.13;1.77;;;;;;;;;;6267831;28;20400;-69
2022/07/16 15:03:22;;;;;;;5.85;1.73;;;;;;;;;;6252255;28;20318;-70
2022/07/16 15:06:42;;;;;;;3.95;1.50;;;;;;;;;;6258569;28;20239;-71
2022/07/16 15:10:04;;;;;;;3.90;1.42;;;;;;;;;;6270586;28;20238;-71
2022/07/16 15:13:25;;;;;;;4.35;1.70;;;;;;;;;;6268897;28;20227;-71
2022/07/16 15:16:46;;;;;;;6.50;2.47;;;;;;;;;;6272280;28;20247;-69
2022/07/16 15:20:08;;;;;;;3.75;1.33;;;;;;;;;;6278476;28;20227;-70
2022/07/16 15:23:29;;;;;;;6.80;2.28;;;;;;;;;;6275799;28;20561;-70
2022/07/16 15:26:51;;;;;;;2.75;1.30;;;;;;;;;;6272490;28;20259;-69
2022/07/16 15:30:13;;;;;;;3.72;2.13;;;;;;;;;;6268306;28;20254;-69
2022/07/16 15:33:41;;;;;;;3.42;2.13;;;;;;;;;;6265112;28;20645;-70
2022/07/16 15:37:02;;;;;;;3.28;1.00;;;;;;;;;;6277546;28;20226;-73
2022/07/16 15:40:23;;;;;;;4.20;1.65;;;;;;;;;;6272213;28;20675;-71
2022/07/16 15:43:45;;;;;;;3.30;1.55;;;;;;;;;;6275980;28;20223;-70
2022/07/16 15:47:06;;;;;;;7.60;1.50;;;;;;;;;;6273320;28;20226;-72
2022/07/16 15:50:26;;;;;;;1.70;1.00;;;;;;;;;;6271184;28;20252;-71
2022/07/16 15:53:47;;;;;;;4.20;1.30;;;;;;;;;;6270222;28;20231;-70
2022/07/16 15:57:09;;;;;;;3.35;1.15;;;;;;;;;;6266392;28;20795;-67
2022/07/16 16:00:31;;;;;;;5.03;1.50;;;;;;;;;;6257397;28;20489;-67
2022/07/16 16:03:52;;;;;;;2.25;1.42;;;;;;;;;;6253626;28;20246;-65
2022/07/16 16:07:13;;;;;;;3.08;1.50;;;;;;;;;;6256493;28;20530;-68
2022/07/16 16:10:34;;;;;;;3.03;1.48;;;;;;;;;;6267446;28;21490;-66
2022/07/16 16:13:55;;;;;;;3.97;1.45;;;;;;;;;;6272963;28;20231;-67
2022/07/16 16:17:17;;;;;;;4.18;1.85;;;;;;;;;;6264010;28;20242;-67
2022/07/16 16:20:37;;;;;;;3.72;1.00;;;;;;;;;;6264799;28;20619;-69
2022/07/16 16:23:58;;;;;;;3.92;2.00;;;;;;;;;;6270921;28;20216;-69
2022/07/16 16:27:19;;;;;;;3.28;1.35;;;;;;;;;;6275501;28;20493;-66
2022/07/16 16:30:40;;;;;;;4.10;2.15;;;;;;;;;;6270582;28;20239;-68
2022/07/16 16:34:02;;;;;;;13.77;12.55;;;;;;;;;;6267273;28;20223;-67
2022/07/16 16:37:22;;;;;;;55.95;44.72;;;;;;;;;;6263266;28;20231;-70
2022/07/16 16:40:43;;;;;;;189.27;148.20;;;;;;;;;;6259888;28;20558;-69
2022/07/16 16:44:04;;;;;;;123.30;79.43;;;;;;;;;;6270222;28;20286;-69
2022/07/16 16:47:24;;;;;;;93.40;83.68;;;;;;;;;;6270242;28;20239;-70
2022/07/16 16:50:47;;;;;;;153.88;138.32;;;;;;;;;;6260622;28;20227;-68
2022/07/16 16:54:07;;;;;;;178.82;162.27;;;;;;;;;;6265969;28;20259;-68
2022/07/16 16:57:28;;;;;;;276.30;249.63;;;;;;;;;;6267578;28;20224;-67
2022/07/16 17:00:49;;;;;;;372.00;338.90;;;;;;;;;;6264800;28;20226;-69
2022/07/16 17:04:09;;;;;;;9.23;8.35;;;;;;;;;;6267039;28;20326;-66
2022/07/16 17:07:31;;;;;;;4.63;3.97;;;;;;;;;;6270088;28;20604;-67
2022/07/16 17:10:52;;;;;;;4.32;3.47;;;;;;;;;;6265972;28;20238;-66
2022/07/16 17:14:12;;;;;;;6.00;2.60;;;;;;;;;;6271291;28;20874;-66
2022/07/16 17:17:33;;;;;;;11.48;2.50;;;;;;;;;;6266384;28;20519;-66
2022/07/16 17:20:54;;;;;;;3.33;1.40;;;;;;;;;;6273206;28;20610;-66
2022/07/16 17:24:16;;;;;;;6.10;2.28;;;;;;;;;;6273148;28;20216;-66
2022/07/16 17:27:37;;;;;;;3.75;1.73;;;;;;;;;;6272733;28;20317;-65
2022/07/16 17:30:57;;;;;;;4.07;1.48;;;;;;;;;;6273393;28;20337;-65
2022/07/16 17:34:18;;;;;;;3.78;1.70;;;;;;;;;;6279398;28;20246;-66
2022/07/16 17:37:38;;;;;;;3.78;1.35;;;;;;;;;;6277863;28;20227;-66
2022/07/16 17:41:01;;;;;;;3.05;1.52;;;;;;;;;;6275038;28;20512;-67
2022/07/16 17:44:21;;;;;;;5.50;1.80;;;;;;;;;;6278122;28;20321;-66
2022/07/16 17:47:42;;;;;;;4.65;1.95;;;;;;;;;;6274642;28;20238;-65
2022/07/16 17:51:02;;;;;;;3.88;1.52;;;;;;;;;;6276560;28;20219;-65
2022/07/16 17:54:23;;;;;;;3.40;1.42;;;;;;;;;;6270513;28;20243;-67
2022/07/16 17:57:44;;;;;;;3.53;1.38;;;;;;;;;;6275912;28;20231;-66
2022/07/16 18:01:05;;;;;;;4.95;1.75;;;;;;;;;;6271596;28;20228;-67
2022/07/16 18:04:25;;;;;;;7.82;1.48;;;;;;;;;;6278392;28;20259;-67
2022/07/16 18:07:46;;;;;;;2.95;1.00;;;;;;;;;;6274703;28;20227;-66
2022/07/16 18:11:07;;;;;;;7.63;2.25;;;;;;;;;;6273227;28;20434;-66
2022/07/16 18:14:31;;;;;;;4.30;1.73;;;;;;;;;;6274866;28;20231;-65
2022/07/16 18:17:51;;;;;;;2.42;1.23;;;;;;;;;;6275325;28;20239;-66
2022/07/16 18:21:12;;;;;;;3.90;1.20;;;;;;;;;;6273695;28;20699;-66
2022/07/16 18:24:33;;;;;;;3.33;1.65;;;;;;;;;;6273184;28;20223;-67
2022/07/16 18:27:53;;;;;;;7.05;6.10;;;;;;;;;;6274609;28;20231;-66
2022/07/16 18:31:15;;;;;;;4.28;1.33;;;;;;;;;;6272041;28;20223;-67
2022/07/16 18:34:36;;;;;;;5.45;1.85;;;;;;;;;;6267881;28;20227;-66
2022/07/16 18:37:58;;;;;;;8.02;2.92;;;;;;;;;;6264160;28;20640;-67
2022/07/16 18:41:19;;;;;;;4.22;1.23;;;;;;;;;;6254340;28;20314;-66
2022/07/16 18:44:39;;;;;;;4.97;2.00;;;;;;;;;;6249710;28;20470;-66
2022/07/16 18:48:01;;;;;;;7.95;1.92;;;;;;;;;;6250090;28;22288;-66
2022/07/16 18:51:22;;;;;;;5.03;1.60;;;;;;;;;;6278033;28;20282;-67
2022/07/16 18:54:43;;;;;;;6.25;2.03;;;;;;;;;;6272149;28;20612;-66
2022/07/16 18:58:04;;;;;;;4.90;2.20;;;;;;;;;;6273125;28;20255;-66
2022/07/16 19:01:24;;;;;;;4.30;1.75;;;;;;;;;;6271485;28;20933;-66
2022/07/16 19:04:46;;;;;;;6.45;2.08;;;;;;;;;;6276369;28;20577;-66
2022/07/16 19:08:07;;;;;;;2.97;2.05;;;;;;;;;;6279407;28;20223;-67
2022/07/16 19:11:28;;;;;;;7.07;2.33;;;;;;;;;;6274259;28;20323;-66
2022/07/16 19:14:48;;;;;;;8.07;4.03;;;;;;;;;;6274426;28;20945;-67
2022/07/16 19:18:09;;;;;;;3.72;2.22;;;;;;;;;;6263134;28;20239;-65
2022/07/16 19:21:32;;;;;;;5.85;2.60;;;;;;;;;;6272150;28;20219;-66
2022/07/16 19:24:52;;;;;;;5.28;3.08;;;;;;;;;;6272178;28;20227;-67
2022/07/16 19:28:13;;;;;;;7.55;3.92;;;;;;;;;;6273551;28;20223;-67
2022/07/16 19:31:34;;;;;;;5.50;2.53;;;;;;;;;;6274111;28;20241;-66
2022/07/16 19:34:55;;;;;;;7.22;3.35;;;;;;;;;;6272273;28;20231;-66
2022/07/16 19:38:17;;;;;;;6.97;3.45;;;;;;;;;;6269353;28;20791;-67
2022/07/16 19:41:38;;;;;;;7.30;1.60;;;;;;;;;;6273015;28;20573;-68
2022/07/16 19:44:59;;;;;;;5.35;3.10;;;;;;;;;;6273866;28;20660;-65
2022/07/16 19:48:19;;;;;;;3.88;2.50;;;;;;;;;;6275544;28;20264;-67
2022/07/16 19:51:40;;;;;;;7.90;5.55;;;;;;;;;;6272088;28;20223;-67
2022/07/16 19:58:40;;;;;;;6.47;1.90;;;;;;;;;;6274096;28;20283;-67
2022/07/16 20:02:01;;;;;;;6.85;2.08;;;;;;;;;;6276377;28;20231;-66
2022/07/16 20:05:21;;;;;;;4.90;2.53;;;;;;;;;;6266921;28;20503;-67
2022/07/16 20:08:42;;;;;;;6.05;2.22;;;;;;;;;;6271291;28;20493;-67
2022/07/16 20:12:05;;;;;;;6.55;2.45;;;;;;;;;;6522828;22;20236;-66
2022/07/16 20:15:26;;;;;;;6.45;2.25;;;;;;;;;;6239908;28;20323;-67
2022/07/16 20:18:46;;;;;;;3.00;1.52;;;;;;;;;;6246875;28;20223;-66
2022/07/16 20:22:07;;;;;;;9.60;2.40;;;;;;;;;;6246848;28;20228;-67
2022/07/16 20:25:27;;;;;;;4.80;2.13;;;;;;;;;;6241310;28;20529;-66
2022/07/16 20:28:49;;;;;;;7.03;2.42;;;;;;;;;;6247999;28;20223;-67
2022/07/16 20:32:10;;;;;;;5.85;2.20;;;;;;;;;;6244426;28;20223;-67